Time;durP1;ratioP1;P1;durP2;ratioP2;P2;SDS_P1;SDS_P2;PMS_P1;PMS_P2;Temp;Humidity;BMP_temperature;BMP_pressure;BME280_temperature;BME280_humidity;BME280_pressure;Samples;Min_cycle;Max_cycle;Signal;HPM_P1;HPM_P2
2022/04/16 00:12:09;;;;;;;7.90;5.88;;;;;;;18.77;37.93;98818.22;5180272;27;20215;-65
2022/04/16 00:14:36;;;;;;;7.57;6.60;;;;;;;19.03;37.91;98822.22;5160125;27;20034;-67
2022/04/16 00:17:02;;;;;;;8.13;6.28;;;;;;;19.33;37.75;98822.03;5153939;27;20154;-64
2022/04/16 00:19:27;;;;;;;7.90;6.07;;;;;;;19.60;37.51;98824.91;5166605;27;20396;-65
2022/04/16 00:21:53;;;;;;;7.65;5.90;;;;;;;19.81;37.04;98824.78;5168474;27;20030;-63
2022/04/16 00:24:18;;;;;;;7.03;5.43;;;;;;;20.02;36.85;98828.44;5171160;27;20059;-64
2022/04/16 00:26:46;;;;;;;10.80;6.00;;;;;;;20.19;36.55;98823.53;5172187;27;20053;-65
2022/04/16 00:29:12;;;;;;;7.85;5.43;;;;;;;20.33;36.12;98821.75;5172062;27;20038;-63
2022/04/16 00:31:38;;;;;;;10.25;5.35;;;;;;;20.46;35.76;98830.88;5172306;27;20403;-64
2022/04/16 00:34:05;;;;;;;10.07;5.47;;;;;;;20.57;35.49;98831.09;5171240;27;20038;-64
2022/04/16 00:36:30;;;;;;;10.05;6.63;;;;;;;20.65;35.48;98816.66;5171919;27;20494;-64
2022/04/16 00:38:56;;;;;;;7.95;6.25;;;;;;;20.76;35.18;98831.34;5171955;27;20062;-64
2022/04/16 00:41:23;;;;;;;10.95;5.82;;;;;;;20.83;35.04;98817.91;5171955;27;20030;-64
2022/04/16 00:43:52;;;;;;;6.40;5.78;;;;;;;20.89;34.98;98822.50;5171195;27;20027;-64
2022/04/16 00:46:17;;;;;;;8.13;5.82;;;;;;;20.97;34.69;98824.97;5172076;27;20153;-65
2022/04/16 00:48:43;;;;;;;7.72;6.20;;;;;;;21.01;34.73;98823.53;5171789;27;20085;-65
2022/04/16 00:51:08;;;;;;;6.38;5.72;;;;;;;21.06;34.57;98825.59;5172797;27;20030;-65
2022/04/16 00:53:34;;;;;;;7.40;5.82;;;;;;;21.10;34.50;98804.50;5171450;27;20030;-65
2022/04/16 00:56:00;;;;;;;6.95;6.03;;;;;;;21.14;34.36;98813.78;5171472;27;20392;-65
2022/04/16 00:58:26;;;;;;;6.53;5.82;;;;;;;21.18;34.20;98818.53;5171295;27;20504;-65
2022/04/16 01:00:51;;;;;;;8.35;5.63;;;;;;;21.22;33.91;98821.66;5171462;27;20031;-64
2022/04/16 01:03:18;;;;;;;6.07;4.97;;;;;;;21.26;34.21;98817.50;5170757;27;20034;-64
2022/04/16 01:05:43;;;;;;;7.32;6.50;;;;;;;21.30;34.01;98818.75;5171575;27;20037;-64
2022/04/16 01:08:08;;;;;;;6.95;6.13;;;;;;;21.33;33.87;98822.88;5171820;27;20392;-64
2022/04/16 01:10:34;;;;;;;7.82;6.72;;;;;;;21.35;33.79;98818.13;5171352;27;20183;-65
2022/04/16 01:13:03;;;;;;;7.93;5.85;;;;;;;21.40;33.63;98820.19;5171144;27;20038;-65
2022/04/16 01:15:29;;;;;;;8.27;6.40;;;;;;;21.43;33.62;98822.47;5170973;27;20031;-64
2022/04/16 01:17:56;;;;;;;8.23;6.35;;;;;;;21.45;33.62;98820.38;5171407;27;20035;-65
2022/04/16 01:20:22;;;;;;;8.43;6.72;;;;;;;21.49;33.60;98821.63;5171473;27;20034;-65
2022/04/16 01:22:50;;;;;;;7.75;6.72;;;;;;;21.50;33.50;98820.59;5160574;27;20031;-65
2022/04/16 01:25:16;;;;;;;8.63;7.10;;;;;;;21.52;33.67;98821.22;5157073;27;20039;-64
2022/04/16 01:27:48;;;;;;;11.23;8.95;;;;;;;21.54;33.65;98821.84;5155152;27;20408;-64
2022/04/16 01:30:16;;;;;;;14.68;11.52;;;;;;;21.57;33.59;98823.28;5156996;27;20042;-64
2022/04/16 01:32:42;;;;;;;15.80;11.65;;;;;;;21.58;33.42;98819.56;5156636;27;20023;-65
2022/04/16 01:35:08;;;;;;;14.77;11.73;;;;;;;21.60;33.27;98825.59;5157408;27;20058;-63
2022/04/16 01:37:35;;;;;;;14.20;12.32;;;;;;;21.61;33.48;98827.25;5156431;27;20026;-65
2022/04/16 01:40:04;;;;;;;16.20;12.15;;;;;;;21.63;33.35;98825.16;5156857;27;20026;-65
2022/04/16 01:42:32;;;;;;;13.25;10.35;;;;;;;21.64;33.25;98827.66;5156540;27;20027;-65
2022/04/16 01:45:09;;;;;;;10.75;9.00;;;;;;;21.65;33.16;98820.38;5156883;27;20027;-66
2022/04/16 01:47:36;;;;;;;11.88;8.35;;;;;;;;;;5156961;27;20030;-66
2022/04/16 01:50:07;;;;;;;7.93;6.78;;;;;;;21.70;33.14;98825.13;5156790;27;20033;-65
2022/04/16 01:52:35;;;;;;;7.70;5.78;;;;;;;21.70;33.19;98825.97;5156731;27;20029;-65
2022/04/16 01:55:00;;;;;;;6.53;5.50;;;;;;;21.71;33.06;98822.25;5156620;27;20521;-66
2022/04/16 01:57:26;;;;;;;6.35;4.82;;;;;;;21.73;33.25;98822.00;5156725;27;20066;-66
2022/04/16 01:59:52;;;;;;;5.00;3.60;;;;;;;21.74;32.93;98824.50;5156820;27;20515;-65
2022/04/16 02:02:19;;;;;;;4.75;3.38;;;;;;;21.76;32.81;98830.50;5156319;27;20120;-66
2022/04/16 02:04:46;;;;;;;6.30;3.70;;;;;;;21.76;32.74;98827.78;5156717;27;20034;-66
2022/04/16 02:07:12;;;;;;;5.03;3.13;;;;;;;21.77;32.63;98834.03;5156899;27;20541;-65
2022/04/16 02:09:37;;;;;;;4.18;2.60;;;;;;;21.79;32.48;98831.94;5156326;27;20022;-65
2022/04/16 02:12:03;;;;;;;4.53;2.80;;;;;;;21.78;32.42;98841.06;5156067;27;20053;-65
2022/04/16 02:14:29;;;;;;;4.10;2.97;;;;;;;21.78;32.34;98844.56;5155328;27;20031;-65
2022/04/16 02:16:54;;;;;;;5.22;2.55;;;;;;;21.79;32.39;98843.53;5156209;27;20405;-65
2022/04/16 02:19:20;;;;;;;4.55;2.60;;;;;;;21.79;32.22;98843.53;5155840;27;20069;-65
2022/04/16 02:21:47;;;;;;;3.72;2.22;;;;;;;21.80;32.16;98844.38;5155276;27;20507;-65
2022/04/16 02:24:13;;;;;;;2.90;2.15;;;;;;;21.79;32.14;98842.72;5155113;27;20497;-65
2022/04/16 02:26:40;;;;;;;3.20;2.28;;;;;;;21.83;32.02;98859.28;5155883;27;20037;-66
2022/04/16 02:29:08;;;;;;;3.22;2.67;;;;;;;21.82;31.99;98853.09;5155938;27;20033;-66
2022/04/16 02:31:33;;;;;;;3.30;2.22;;;;;;;21.83;31.87;98862.81;5155287;27;20026;-65
2022/04/16 02:33:59;;;;;;;4.47;2.88;;;;;;;21.83;31.89;98857.44;5154194;27;20035;-65
2022/04/16 02:36:25;;;;;;;2.33;2.08;;;;;;;21.83;31.84;98862.81;5155834;27;20031;-65
2022/04/16 02:38:54;;;;;;;2.25;1.63;;;;;;;21.81;31.86;98859.50;5155319;27;20030;-66
2022/04/16 02:41:20;;;;;;;4.32;2.72;;;;;;;21.81;31.64;98867.56;5155562;27;20027;-65
2022/04/16 02:43:46;;;;;;;2.35;1.80;;;;;;;21.80;31.55;98871.31;5155733;27;20073;-64
2022/04/16 02:48:56;;;;;;;2.75;1.95;;;;;;;21.81;31.83;98872.97;5155126;27;20110;-65
2022/04/16 02:51:21;;;;;;;2.17;1.50;;;;;;;21.80;31.55;98888.28;5155179;27;20083;-64
2022/04/16 02:53:46;;;;;;;2.08;1.38;;;;;;;21.79;31.50;98886.63;5154386;27;20026;-65
2022/04/16 02:56:12;;;;;;;1.95;1.40;;;;;;;21.79;31.33;98885.81;5155567;27;20035;-65
2022/04/16 02:58:38;;;;;;;2.55;1.63;;;;;;;21.79;31.37;98881.22;5155297;27;20631;-66
2022/04/16 03:01:04;;;;;;;3.40;1.60;;;;;;;21.81;31.31;98883.75;5155233;27;20034;-65
2022/04/16 03:03:29;;;;;;;2.30;1.50;;;;;;;21.82;31.12;98887.25;5154800;27;20019;-65
2022/04/16 03:05:55;;;;;;;2.25;1.35;;;;;;;21.82;30.94;98885.41;5143717;27;20083;-65
2022/04/16 03:08:24;;;;;;;3.00;1.45;;;;;;;21.84;31.35;98887.88;5148625;27;20041;-66
2022/04/16 03:10:52;;;;;;;2.00;1.50;;;;;;;21.84;30.93;98894.06;5154875;27;20051;-66
2022/04/16 03:13:18;;;;;;;1.30;1.10;;;;;;;21.86;30.85;98904.66;5154269;27;20031;-67
2022/04/16 03:18:28;;;;;;;1.70;1.30;;;;;;;21.85;30.91;98906.50;5155720;27;20393;-66
2022/04/16 03:20:54;;;;;;;1.98;1.25;;;;;;;21.85;31.16;98906.50;5154870;27;20023;-67
2022/04/16 03:23:20;;;;;;;1.85;1.25;;;;;;;21.85;30.87;98913.75;5154729;27;20157;-65
2022/04/16 03:25:46;;;;;;;2.05;0.93;;;;;;;21.85;30.81;98911.88;5134178;27;20513;-66
2022/04/16 03:28:12;;;;;;;1.77;1.23;;;;;;;21.85;30.70;98911.88;5140175;27;20039;-66
2022/04/16 03:30:38;;;;;;;2.80;1.42;;;;;;;21.85;30.87;98917.25;5154632;27;20030;-65
2022/04/16 03:33:04;;;;;;;1.27;1.08;;;;;;;21.86;30.58;98929.69;5134160;27;20497;-65
2022/04/16 03:35:30;;;;;;;1.65;1.27;;;;;;;21.86;30.51;98918.91;5134233;27;20027;-65
2022/04/16 03:37:56;;;;;;;2.40;1.02;;;;;;;21.86;30.60;98924.31;5139515;27;20033;-65
2022/04/16 03:40:26;;;;;;;1.35;0.90;;;;;;;21.86;30.68;98924.31;5154884;27;20759;-66
2022/04/16 03:42:56;;;;;;;2.20;1.10;;;;;;;21.86;30.64;98920.81;5154458;27;20027;-66
2022/04/16 03:45:33;;;;;;;2.65;0.82;;;;;;;21.86;30.45;98915.41;5154142;27;20053;-66
2022/04/16 03:48:00;;;;;;;1.15;0.80;;;;;;;21.86;30.35;98918.91;5154268;27;20389;-66
2022/04/16 03:50:27;;;;;;;0.95;0.68;;;;;;;21.87;30.20;98919.75;5154658;27;20078;-66
2022/04/16 03:52:54;;;;;;;2.08;0.80;;;;;;;21.86;30.17;98927.00;5154691;27;20050;-66
2022/04/16 04:00:51;;;;;;;1.17;0.90;;;;;;;21.85;29.65;98928.03;5154798;27;20090;-66
2022/04/16 04:03:17;;;;;;;1.00;0.70;;;;;;;21.85;29.77;98917.25;5154036;27;20034;-66
2022/04/16 04:05:53;;;;;;;0.93;0.60;;;;;;;21.85;29.79;98928.03;5145066;27;20027;-66
2022/04/16 04:08:19;;;;;;;1.52;0.60;;;;;;;21.85;29.84;98936.13;5139390;27;20026;-66
2022/04/16 04:10:46;;;;;;;1.02;0.63;;;;;;;21.86;29.59;98935.09;5153063;27;20414;-66
2022/04/16 04:13:12;;;;;;;0.68;0.60;;;;;;;21.85;29.34;98938.81;5153836;27;20397;-66
2022/04/16 04:15:37;;;;;;;1.00;0.70;;;;;;;21.86;29.63;98940.47;5154035;27;20033;-67
2022/04/16 04:18:03;;;;;;;0.73;0.60;;;;;;;21.86;29.48;98932.38;5153925;27;20423;-66
2022/04/16 04:20:29;;;;;;;0.40;0.40;;;;;;;21.84;29.56;98939.03;5153959;27;20042;-66
2022/04/16 04:22:55;;;;;;;0.88;0.55;;;;;;;21.85;29.63;98946.06;5153890;27;20041;-66
2022/04/16 04:25:21;;;;;;;0.45;0.43;;;;;;;21.85;29.42;98949.59;5151105;27;20047;-67
2022/04/16 04:27:47;;;;;;;1.80;0.90;;;;;;;21.86;29.63;98963.88;5133050;28;20084;-67
2022/04/16 04:30:13;;;;;;;1.27;0.60;;;;;;;21.86;29.56;98956.63;5133144;28;20049;-67
2022/04/16 04:32:38;;;;;;;0.82;0.52;;;;;;;21.87;29.45;98958.28;5133198;28;20038;-66
2022/04/16 04:35:05;;;;;;;1.42;0.60;;;;;;;21.87;29.16;98968.25;5151308;27;20030;-67
2022/04/16 04:37:31;;;;;;;0.95;0.43;;;;;;;21.87;29.08;98968.25;5153692;27;20574;-67
2022/04/16 04:39:56;;;;;;;0.30;0.30;;;;;;;21.86;29.39;98978.16;5153605;27;20101;-67
2022/04/16 04:42:32;;;;;;;0.38;0.38;;;;;;;21.85;29.52;98976.50;5153684;27;20037;-65
2022/04/16 04:45:05;;;;;;;1.70;0.73;;;;;;;21.86;29.37;98980.03;5153906;27;20035;-65
2022/04/16 04:47:31;;;;;;;2.00;0.50;;;;;;;21.86;29.02;98998.91;5154317;27;20034;-66
2022/04/16 04:49:56;;;;;;;0.52;0.30;;;;;;;21.85;29.34;98997.25;5153998;27;20022;-66
2022/04/16 04:52:24;;;;;;;0.47;0.40;;;;;;;21.85;29.44;99008.00;5154016;27;20031;-66
2022/04/16 04:54:50;;;;;;;0.50;0.38;;;;;;;21.84;29.44;99004.47;5152564;27;20110;-66
2022/04/16 04:57:16;;;;;;;1.13;0.47;;;;;;;21.86;29.51;99002.41;5155024;27;20161;-66
2022/04/16 04:59:43;;;;;;;0.57;0.30;;;;;;;21.87;29.44;99008.63;5157951;27;20118;-65
2022/04/16 05:02:09;;;;;;;1.67;0.80;;;;;;;21.85;29.56;99008.81;5157446;27;20030;-65
2022/04/16 05:04:35;;;;;;;0.70;0.50;;;;;;;21.87;29.42;99006.75;5156523;27;20080;-66
2022/04/16 05:07:02;;;;;;;0.55;0.30;;;;;;;21.88;29.42;99004.91;5157911;27;20038;-66
2022/04/16 05:09:28;;;;;;;1.00;0.55;;;;;;;21.88;29.50;99013.00;5157376;27;20030;-66
2022/04/16 05:11:53;;;;;;;0.45;0.30;;;;;;;21.88;29.50;99011.13;5157258;27;20054;-66
2022/04/16 05:14:19;;;;;;;0.20;0.17;;;;;;;21.89;29.52;99012.78;5157243;27;20035;-65
2022/04/16 05:16:44;;;;;;;0.60;0.50;;;;;;;21.90;29.23;99016.31;5157182;27;20035;-67
2022/04/16 05:19:10;;;;;;;1.13;0.43;;;;;;;21.89;29.48;99006.56;5156828;27;20505;-64
2022/04/16 05:21:35;;;;;;;0.52;0.50;;;;;;;21.88;29.17;99007.59;5157620;27;20050;-63
2022/04/16 05:24:01;;;;;;;1.00;0.40;;;;;;;21.89;29.26;99010.06;5156329;27;20087;-64
2022/04/16 05:26:27;;;;;;;0.28;0.28;;;;;;;21.89;29.03;99018.16;5156198;27;20038;-65
2022/04/16 05:28:52;;;;;;;0.30;0.30;;;;;;;21.89;28.88;99026.25;5157318;27;20117;-65
2022/04/16 05:31:20;;;;;;;0.80;0.30;;;;;;;21.90;29.21;99010.91;5157277;27;20023;-65
2022/04/16 05:36:29;;;;;;;0.28;0.20;;;;;;;21.88;29.00;99003.03;5157306;27;20108;-64
2022/04/16 05:38:55;;;;;;;0.40;0.30;;;;;;;21.91;29.04;99016.09;5155735;27;20027;-64
2022/04/16 05:41:20;;;;;;;0.47;0.40;;;;;;;21.89;29.11;99010.06;5156785;27;20034;-63
2022/04/16 05:43:47;;;;;;;0.50;0.25;;;;;;;21.92;28.87;99009.66;5156043;27;20039;-64
2022/04/16 05:46:13;;;;;;;0.77;0.35;;;;;;;21.92;29.04;99006.97;5157513;27;20114;-65
2022/04/16 05:48:38;;;;;;;0.43;0.30;;;;;;;21.93;28.97;99011.31;5155972;27;20175;-64
2022/04/16 05:51:04;;;;;;;0.80;0.60;;;;;;;21.92;28.80;99000.75;5156696;27;20023;-66
2022/04/16 05:53:31;;;;;;;0.93;0.52;;;;;;;21.93;28.80;99015.88;5153419;27;20503;-65
2022/04/16 05:55:57;;;;;;;0.40;0.30;;;;;;;21.94;28.76;99013.00;5156507;27;20034;-65
2022/04/16 05:58:23;;;;;;;0.88;0.20;;;;;;;21.95;28.51;99022.72;5156453;27;20065;-65
2022/04/16 06:00:49;;;;;;;0.60;0.35;;;;;;;21.93;28.23;99019.41;5156163;27;20022;-65
2022/04/16 06:03:15;;;;;;;0.40;0.40;;;;;;;21.93;28.42;99016.72;5155468;27;20374;-65
2022/04/16 06:05:41;;;;;;;2.33;0.68;;;;;;;21.94;28.64;99018.38;5156717;27;20057;-66
2022/04/16 06:08:07;;;;;;;0.80;0.38;;;;;;;21.94;28.79;99028.31;5156433;27;20034;-66
2022/04/16 06:10:32;;;;;;;0.90;0.30;;;;;;;21.95;28.69;99038.03;5137475;27;20425;-66
2022/04/16 06:12:57;;;;;;;0.32;0.30;;;;;;;21.94;28.65;99028.31;5156144;27;20034;-64
2022/04/16 06:15:23;;;;;;;0.47;0.30;;;;;;;21.94;28.55;99029.16;5154614;27;20038;-66
2022/04/16 06:17:49;;;;;;;0.82;0.30;;;;;;;21.95;28.27;99030.81;5155189;27;20056;-65
2022/04/16 06:20:14;;;;;;;0.20;0.20;;;;;;;21.93;28.33;99027.50;5156442;27;20034;-65
2022/04/16 06:22:40;;;;;;;0.63;0.30;;;;;;;21.95;28.70;99035.34;5155535;27;20095;-66
2022/04/16 06:25:08;;;;;;;0.30;0.30;;;;;;;21.95;28.63;99025.41;5156672;27;20034;-66
2022/04/16 06:27:40;;;;;;;0.63;0.20;;;;;;;21.97;28.67;99024.38;5155939;27;20118;-66
2022/04/16 06:30:08;;;;;;;0.63;0.28;;;;;;;21.98;28.62;99029.56;5156126;27;20113;-66
2022/04/16 06:32:34;;;;;;;0.55;0.30;;;;;;;21.95;28.47;99025.41;5154495;27;20117;-66
2022/04/16 06:35:00;;;;;;;0.50;0.30;;;;;;;21.94;28.45;99017.53;5155369;27;20561;-66
2022/04/16 06:37:26;;;;;;;0.65;0.30;;;;;;;21.92;28.29;99015.06;5155065;27;20401;-66
2022/04/16 06:39:52;;;;;;;0.75;0.40;;;;;;;21.91;28.23;99018.78;5155687;27;20485;-66
2022/04/16 06:42:17;;;;;;;0.45;0.20;;;;;;;21.92;28.42;99015.06;5155811;27;20022;-66
2022/04/16 06:44:43;;;;;;;1.10;0.45;;;;;;;21.95;28.35;99025.41;5154948;27;20529;-65
2022/04/16 06:47:08;;;;;;;0.57;0.30;;;;;;;21.92;28.36;99033.91;5155776;27;20030;-65
2022/04/16 06:49:34;;;;;;;0.63;0.52;;;;;;;21.94;28.26;99039.06;5155705;27;20026;-66
2022/04/16 06:51:59;;;;;;;0.80;0.50;;;;;;;21.93;28.10;99035.56;5155658;27;20023;-66
2022/04/16 06:54:25;;;;;;;2.00;0.32;;;;;;;21.92;28.05;99036.59;5155285;27;20362;-66
2022/04/16 06:56:50;;;;;;;0.30;0.30;;;;;;;21.91;28.28;99045.72;5137296;27;20039;-65
2022/04/16 06:59:15;;;;;;;2.03;0.50;;;;;;;21.91;28.40;99040.31;5154429;27;20030;-66
2022/04/16 07:01:41;;;;;;;0.55;0.32;;;;;;;21.95;28.41;99051.50;5155257;27;20038;-69
2022/04/16 07:04:06;;;;;;;1.67;0.40;;;;;;;21.96;28.27;99069.34;5155161;27;20030;-66
2022/04/16 07:06:32;;;;;;;1.95;0.30;;;;;;;21.95;28.15;99067.66;5139036;27;20115;-66
2022/04/16 07:08:57;;;;;;;0.50;0.30;;;;;;;21.94;28.26;99064.16;5142953;27;20022;-65
2022/04/16 07:11:23;;;;;;;2.65;0.55;;;;;;;21.94;28.00;99068.69;5153902;27;20101;-64
2022/04/16 07:13:48;;;;;;;0.60;0.30;;;;;;;21.94;28.10;99085.72;5155174;27;20102;-65
2022/04/16 07:16:14;;;;;;;0.57;0.30;;;;;;;21.95;27.97;99083.84;5155334;27;20114;-64
2022/04/16 07:18:39;;;;;;;0.30;0.30;;;;;;;21.96;27.88;99090.88;5154423;27;20505;-64
2022/04/16 07:21:05;;;;;;;0.70;0.50;;;;;;;21.95;28.00;99087.38;5154526;27;20525;-64
2022/04/16 07:23:30;;;;;;;0.63;0.40;;;;;;;21.94;27.82;99088.41;5154355;27;20433;-64
2022/04/16 07:25:56;;;;;;;0.57;0.20;;;;;;;21.94;27.89;99098.34;5154726;27;20038;-64
2022/04/16 07:28:22;;;;;;;2.60;0.30;;;;;;;21.93;28.01;99092.13;5155104;27;20087;-64
2022/04/16 07:30:48;;;;;;;0.17;0.17;;;;;;;21.94;28.03;99092.94;5154895;27;20039;-64
2022/04/16 07:33:14;;;;;;;0.50;0.28;;;;;;;21.92;28.16;99100.41;5148513;27;20057;-66
2022/04/16 07:35:40;;;;;;;1.45;0.43;;;;;;;21.91;28.32;99104.97;5154075;27;20034;-63
2022/04/16 07:38:06;;;;;;;0.70;0.30;;;;;;;21.91;28.40;99117.63;5154252;27;20034;-63
2022/04/16 07:40:31;;;;;;;0.43;0.40;;;;;;;21.90;28.20;99124.84;5154614;27;20109;-64
2022/04/16 07:42:58;;;;;;;0.98;0.30;;;;;;;21.87;28.12;99119.06;5134841;27;20442;-65
2022/04/16 07:45:24;;;;;;;1.85;0.45;;;;;;;21.88;28.27;99126.09;5154200;27;20038;-66
2022/04/16 07:47:50;;;;;;;0.65;0.40;;;;;;;21.86;28.48;99120.09;5154661;27;20034;-65
2022/04/16 07:50:19;;;;;;;0.55;0.30;;;;;;;21.85;28.09;99127.31;5153896;27;20069;-63
2022/04/16 07:52:45;;;;;;;1.17;0.40;;;;;;;21.85;27.92;99134.59;5153693;27;20092;-62
2022/04/16 07:55:11;;;;;;;2.63;0.52;;;;;;;21.83;27.96;99120.50;5154139;27;20030;-64
2022/04/16 07:57:37;;;;;;;0.60;0.50;;;;;;;21.83;28.05;99129.41;5154552;27;20030;-65
2022/04/16 08:00:07;;;;;;;0.82;0.40;;;;;;;21.84;28.05;99136.44;5154076;27;20034;-64
2022/04/16 08:02:33;;;;;;;0.57;0.30;;;;;;;21.83;27.94;99125.88;5154054;27;20062;-64
2022/04/16 08:04:58;;;;;;;1.48;0.50;;;;;;;21.81;28.02;99139.56;5153837;27;20054;-65
2022/04/16 08:07:24;;;;;;;0.43;0.40;;;;;;;21.82;28.01;99143.06;5152694;27;20035;-63
2022/04/16 08:09:50;;;;;;;1.20;1.10;;;;;;;21.83;28.02;99133.97;5154064;27;20034;-64
2022/04/16 08:12:16;;;;;;;0.30;0.30;;;;;;;21.85;28.06;99126.50;5154306;27;20393;-66
2022/04/16 08:14:41;;;;;;;0.90;0.60;;;;;;;21.85;27.97;99137.28;5154082;27;20099;-66
2022/04/16 08:17:07;;;;;;;1.17;0.32;;;;;;;21.83;28.01;99133.97;5153968;27;20026;-64
2022/04/16 08:19:32;;;;;;;1.17;0.60;;;;;;;21.85;27.96;99139.97;5153206;27;20034;-66
2022/04/16 08:21:58;;;;;;;1.95;0.40;;;;;;;21.84;27.96;99136.44;5154352;27;20113;-63
2022/04/16 08:26:52;;;;;;;1.05;0.50;;;;;;;21.85;27.84;99137.28;5154137;27;20023;-66
2022/04/16 08:29:18;;;;;;;0.88;0.50;;;;;;;21.84;27.68;99149.91;5153172;27;20061;-64
2022/04/16 08:31:43;;;;;;;0.90;0.50;;;;;;;21.85;27.46;99150.75;5154523;27;20030;-65
2022/04/16 08:34:09;;;;;;;0.63;0.40;;;;;;;21.84;27.74;99151.78;5156815;27;20042;-66
2022/04/16 08:36:34;;;;;;;0.65;0.40;;;;;;;21.85;28.00;99153.44;5158032;27;20163;-65
2022/04/16 08:39:00;;;;;;;0.65;0.40;;;;;;;21.85;27.77;99156.94;5157419;27;20034;-65
2022/04/16 08:41:26;;;;;;;0.55;0.40;;;;;;;21.85;28.09;99158.81;5157441;27;20109;-64
2022/04/16 08:43:53;;;;;;;2.20;0.52;;;;;;;21.81;27.79;99158.41;5156934;27;20038;-63
2022/04/16 08:46:19;;;;;;;1.85;0.32;;;;;;;21.85;27.88;99167.72;5137104;27;20027;-64
2022/04/16 08:48:45;;;;;;;1.30;0.50;;;;;;;21.87;27.85;99159.47;5137242;27;20031;-64
2022/04/16 08:51:11;;;;;;;1.95;0.60;;;;;;;21.86;27.72;99166.69;5157974;27;20053;-64
2022/04/16 08:53:37;;;;;;;0.38;0.30;;;;;;;21.86;27.75;99163.19;5138146;27;20035;-65
2022/04/16 08:56:03;;;;;;;0.73;0.60;;;;;;;21.87;27.81;99172.91;5157043;27;20045;-65
2022/04/16 08:58:32;;;;;;;0.80;0.77;;;;;;;21.86;27.86;99164.00;5157758;27;20050;-65
2022/04/16 09:00:59;;;;;;;5.80;0.40;;;;;;;21.87;27.75;99176.44;5157804;27;20029;-65
2022/04/16 09:03:35;;;;;;;1.58;0.70;;;;;;;21.89;27.74;99173.56;5157712;27;20042;-65
2022/04/16 09:06:02;;;;;;;0.85;0.60;;;;;;;21.88;27.52;99178.09;5149637;27;20091;-65
2022/04/16 09:08:29;;;;;;;0.82;0.60;;;;;;;21.88;27.67;99172.72;5156598;27;20038;-65
2022/04/16 09:11:10;;;;;;;0.80;0.52;;;;;;;21.89;27.68;99185.16;5157201;27;20413;-64
2022/04/16 09:13:39;;;;;;;1.05;0.50;;;;;;;21.89;27.63;99184.31;5156004;27;20419;-66
2022/04/16 09:16:06;;;;;;;3.17;0.80;;;;;;;21.90;27.75;99177.91;5157540;27;20027;-65
2022/04/16 09:18:52;;;;;;;0.65;0.43;;;;;;;21.91;27.66;99180.38;5157066;27;20026;-66
2022/04/16 09:21:20;;;;;;;0.52;0.40;;;;;;;21.93;28.01;99164.84;5157070;27;20087;-65
2022/04/16 09:23:50;;;;;;;1.17;0.52;;;;;;;21.93;27.79;99178.31;5156681;27;20022;-64
2022/04/16 09:26:32;;;;;;;0.47;0.40;;;;;;;21.95;27.75;99167.34;5157115;27;20030;-65
2022/04/16 09:29:07;;;;;;;0.60;0.40;;;;;;;21.97;27.92;99181.44;5157216;27;20058;-65
2022/04/16 09:31:35;;;;;;;1.50;0.80;;;;;;;21.99;27.55;99186.59;5157110;27;20031;-65
2022/04/16 09:34:01;;;;;;;0.77;0.60;;;;;;;22.01;27.24;99196.16;5156279;27;20058;-65
2022/04/16 09:36:28;;;;;;;1.95;0.77;;;;;;;21.99;27.39;99192.84;5156770;27;20109;-65
2022/04/16 09:39:01;;;;;;;1.70;0.70;;;;;;;21.99;27.12;99192.84;5157015;27;20023;-66
2022/04/16 09:41:31;;;;;;;1.05;0.70;;;;;;;22.00;27.55;99191.81;5156688;27;20033;-65
2022/04/16 09:43:56;;;;;;;0.70;0.50;;;;;;;22.01;27.88;99201.53;5155970;27;20063;-66
2022/04/16 09:46:26;;;;;;;1.13;0.65;;;;;;;22.03;27.74;99206.72;5156744;27;20039;-65
2022/04/16 09:48:54;;;;;;;1.27;0.65;;;;;;;22.01;27.37;99200.69;5156595;27;20047;-66
2022/04/16 09:51:23;;;;;;;3.20;0.57;;;;;;;22.02;27.49;99213.97;5157074;27;20038;-66
2022/04/16 09:53:52;;;;;;;3.13;0.82;;;;;;;22.00;27.38;99205.28;5155056;27;20042;-65
2022/04/16 09:56:19;;;;;;;1.20;0.50;;;;;;;21.99;27.25;99218.94;5156954;27;20034;-66
2022/04/16 09:58:52;;;;;;;0.50;0.47;;;;;;;21.97;27.50;99210.25;5155409;27;20022;-65
2022/04/16 10:01:21;;;;;;;1.50;0.60;;;;;;;21.99;27.26;99213.53;5156337;27;20038;-65
2022/04/16 10:03:47;;;;;;;0.73;0.50;;;;;;;22.00;27.26;99221.44;5155446;27;20030;-65
2022/04/16 10:06:13;;;;;;;0.65;0.50;;;;;;;22.00;26.91;99231.38;5142813;27;20039;-65
2022/04/16 10:08:40;;;;;;;2.50;0.55;;;;;;;22.00;27.28;99231.38;5152678;27;20030;-65
2022/04/16 10:11:08;;;;;;;0.75;0.60;;;;;;;22.00;27.04;99237.59;5154753;27;20062;-65
2022/04/16 10:13:40;;;;;;;1.02;0.60;;;;;;;21.99;27.16;99237.78;5154893;27;20034;-65
2022/04/16 10:16:16;;;;;;;0.63;0.55;;;;;;;22.00;26.98;99228.66;5155484;27;20038;-64
2022/04/16 10:18:44;;;;;;;0.85;0.60;;;;;;;22.01;26.91;99238.41;5156156;27;20524;-66
2022/04/16 10:21:17;;;;;;;1.35;0.70;;;;;;;21.99;26.56;99245.88;5155489;27;20122;-65
2022/04/16 10:23:42;;;;;;;0.50;0.40;;;;;;;21.95;26.63;99238.22;5155382;27;20464;-66
2022/04/16 10:26:12;;;;;;;1.08;0.80;;;;;;;21.97;26.86;99232.59;5154761;27;20110;-64
2022/04/16 10:28:52;;;;;;;1.08;0.60;;;;;;;21.98;26.87;99245.03;5155788;27;20030;-64
2022/04/16 10:31:29;;;;;;;1.25;0.70;;;;;;;21.99;27.07;99253.94;5155451;27;20075;-64
2022/04/16 10:34:03;;;;;;;2.40;1.10;;;;;;;21.98;27.17;99261.22;5155116;27;20049;-66
2022/04/16 10:36:37;;;;;;;1.40;0.77;;;;;;;21.97;26.86;99264.13;5155794;27;20034;-66
2022/04/16 10:39:16;;;;;;;0.77;0.60;;;;;;;21.98;27.00;99260.41;5155843;27;20037;-66
2022/04/16 10:42:03;;;;;;;1.08;0.73;;;;;;;21.94;27.13;99259.94;5155658;27;20027;-64
2022/04/16 10:44:42;;;;;;;1.08;0.60;;;;;;;21.93;27.05;99264.50;5154713;27;20066;-65
2022/04/16 10:47:12;;;;;;;0.57;0.50;;;;;;;21.93;26.96;99266.38;5137144;27;20501;-63
2022/04/16 10:49:40;;;;;;;0.95;0.75;;;;;;;21.93;26.88;99259.13;5154635;27;20109;-63
2022/04/16 10:52:21;;;;;;;1.10;0.60;;;;;;;21.95;26.96;99265.16;5154789;27;20491;-64
2022/04/16 10:54:47;;;;;;;1.83;1.05;;;;;;;21.94;27.01;99265.34;5153604;27;20114;-63
2022/04/16 10:57:21;;;;;;;0.90;0.60;;;;;;;21.96;27.13;99268.66;5155044;27;20038;-64
2022/04/16 10:59:47;;;;;;;1.25;0.60;;;;;;;21.94;26.98;99274.25;5136440;27;20062;-64
2022/04/16 11:02:23;;;;;;;0.90;0.65;;;;;;;21.99;27.14;99283.56;5153598;27;20509;-65
2022/04/16 11:05:11;;;;;;;0.82;0.57;;;;;;;21.98;27.12;99279.25;5154096;27;20062;-65
2022/04/16 11:07:40;;;;;;;1.77;0.52;;;;;;;21.98;26.98;99295.41;5151787;27;20459;-64
2022/04/16 11:10:10;;;;;;;9.68;1.00;;;;;;;21.93;28.00;99278.00;5151666;27;20477;-64
2022/04/16 11:12:40;;;;;;;7.80;1.60;;;;;;;21.89;27.72;99271.34;5149818;27;20046;-65
2022/04/16 11:15:14;;;;;;;4.72;0.60;;;;;;;21.89;27.22;99290.19;5154213;27;20442;-64
2022/04/16 11:17:39;;;;;;;2.33;0.68;;;;;;;21.87;27.08;99292.25;5152780;27;20046;-68
2022/04/16 11:20:06;;;;;;;1.77;0.90;;;;;;;21.85;26.84;99293.50;5154657;27;20035;-67
2022/04/16 11:22:32;;;;;;;5.25;0.63;;;;;;;21.85;26.57;99293.50;5153771;27;20412;-65
2022/04/16 11:24:58;;;;;;;2.42;0.75;;;;;;;21.81;27.56;99298.44;5139925;27;20045;-66
2022/04/16 11:36:09;;;;;;;2.90;1.38;;;;;;;21.71;28.22;99319.50;5154880;27;20037;-64
2022/04/16 11:38:36;;;;;;;2.47;1.27;;;;;;;21.37;28.56;99318.47;5150137;27;20034;-64
2022/04/16 11:41:04;;;;;;;7.78;1.48;;;;;;;21.12;29.01;99330.50;5134587;27;20081;-63
2022/04/16 11:43:31;;;;;;;5.03;1.45;;;;;;;20.91;28.88;99330.50;5149814;27;20155;-67
2022/04/16 11:45:59;;;;;;;3.72;1.20;;;;;;;20.77;28.86;99327.72;5143246;27;20035;-64
2022/04/16 11:48:24;;;;;;;2.30;1.02;;;;;;;20.61;28.45;99336.84;5139476;27;20083;-67
2022/04/16 11:50:50;;;;;;;3.45;1.23;;;;;;;20.42;29.11;99349.88;5138943;27;20490;-67
2022/04/16 11:53:16;;;;;;;2.35;1.27;;;;;;;20.33;29.35;99350.16;5138110;27;20034;-64
2022/04/16 11:55:50;;;;;;;3.83;1.33;;;;;;;20.25;30.33;99343.91;5136104;27;20507;-64
2022/04/16 11:58:16;;;;;;;3.15;1.38;;;;;;;20.21;29.77;99349.84;5144481;27;20138;-64
2022/04/16 12:00:54;;;;;;;1.77;0.90;;;;;;;20.15;29.39;99346.03;5153564;27;20034;-69
2022/04/16 12:03:20;;;;;;;3.33;1.60;;;;;;;20.10;29.23;99343.91;5144063;27;20045;-68
2022/04/16 12:05:48;;;;;;;2.35;1.20;;;;;;;20.09;29.58;99350.31;5140051;27;20069;-65
2022/04/16 12:08:16;;;;;;;1.40;0.88;;;;;;;20.07;29.47;99352.34;5143161;27;20061;-66
2022/04/16 12:10:48;;;;;;;1.77;0.75;;;;;;;20.04;29.07;99359.94;5141469;27;20100;-67